createdAt,value
2023-04-15T00:01:00.031Z,40.27
2023-04-15T00:03:30.950Z,40.20
2023-04-15T00:06:00.070Z,40.27
2023-04-15T00:08:29.143Z,40.50
2023-04-15T00:10:59.578Z,40.49
2023-04-15T00:13:31.029Z,40.67
2023-04-15T00:16:00.038Z,40.65
2023-04-15T00:18:29.914Z,40.97
2023-04-15T00:21:02.448Z,40.83
2023-04-15T00:23:30.849Z,40.98
2023-04-15T00:25:58.976Z,41.16
2023-04-15T00:28:28.420Z,40.87
2023-04-15T00:30:56.474Z,41.19
2023-04-15T00:33:24.491Z,41.20
2023-04-15T00:35:52.223Z,41.17
2023-04-15T00:38:20.077Z,41.04
2023-04-15T00:40:48.222Z,41.37
2023-04-15T00:43:16.444Z,41.33
2023-04-15T00:45:47.159Z,41.19
2023-04-15T00:48:16.357Z,41.32
2023-04-15T00:50:44.073Z,41.25
2023-04-15T00:53:12.372Z,41.33
2023-04-15T00:55:40.541Z,41.19
2023-04-15T00:58:08.378Z,41.31
2023-04-15T01:00:36.566Z,41.27
2023-04-15T01:03:04.450Z,41.35
2023-04-15T01:05:33.653Z,41.34
2023-04-15T01:08:01.861Z,41.33
2023-04-15T01:10:30.818Z,41.51
2023-04-15T01:12:58.526Z,41.77
2023-04-15T01:15:27.510Z,41.81
2023-04-15T01:17:55.743Z,41.78
2023-04-15T01:20:23.458Z,41.92
2023-04-15T01:22:51.499Z,41.96
2023-04-15T01:25:22.523Z,42.10
2023-04-15T01:27:50.254Z,41.88
2023-04-15T01:30:18.439Z,42.24
2023-04-15T01:32:46.630Z,42.38
2023-04-15T01:35:14.374Z,42.15
2023-04-15T01:37:42.154Z,42.38
2023-04-15T01:40:10.322Z,42.25
2023-04-15T01:42:38.410Z,42.19
2023-04-15T01:45:07.165Z,42.35
2023-04-15T01:47:34.844Z,42.24
2023-04-15T01:50:03.201Z,42.23
2023-04-15T01:52:30.918Z,42.30
2023-04-15T01:54:58.664Z,42.32
2023-04-15T01:57:26.425Z,41.96
2023-04-15T01:59:54.210Z,41.90
2023-04-15T02:02:22.828Z,42.06
2023-04-15T02:04:50.672Z,42.05
2023-04-15T02:07:18.314Z,41.95
2023-04-15T02:09:46.177Z,42.22
2023-04-15T02:12:14.468Z,41.98
2023-04-15T02:14:42.227Z,42.07
2023-04-15T02:17:09.938Z,42.20
2023-04-15T02:19:37.749Z,42.38
2023-04-15T02:22:07.310Z,42.35
2023-04-15T02:24:35.535Z,42.33
2023-04-15T02:27:04.222Z,42.42
2023-04-15T02:29:33.006Z,42.56
2023-04-15T02:32:02.096Z,42.61
2023-04-15T02:34:30.405Z,42.63
2023-04-15T02:36:58.993Z,42.72
2023-04-15T02:39:27.374Z,42.80
2023-04-15T02:41:55.408Z,42.78
2023-04-15T02:44:24.890Z,42.79
2023-04-15T02:46:56.636Z,42.83
2023-04-15T02:49:25.640Z,42.83
2023-04-15T02:51:53.351Z,42.90
2023-04-15T02:54:26.749Z,42.88
2023-04-15T02:56:56.152Z,43.06
2023-04-15T02:59:24.045Z,43.02
2023-04-15T03:01:51.793Z,43.01
2023-04-15T03:04:19.652Z,43.01
2023-04-15T03:06:47.492Z,42.97
2023-04-15T03:09:15.681Z,42.90
2023-04-15T03:11:44.183Z,43.02
2023-04-15T03:14:12.067Z,43.03
2023-04-15T03:16:43.505Z,43.11
2023-04-15T03:19:12.084Z,42.95
2023-04-15T03:21:42.333Z,43.17
2023-04-15T03:24:10.686Z,43.18
2023-04-15T03:26:38.879Z,43.23
2023-04-15T03:29:12.410Z,43.16
2023-04-15T03:31:41.730Z,43.33
2023-04-15T03:34:09.411Z,43.15
2023-04-15T03:36:37.620Z,43.31
2023-04-15T03:39:05.552Z,43.33
2023-04-15T03:41:33.477Z,43.43
2023-04-15T03:44:01.451Z,43.49
2023-04-15T03:46:29.183Z,43.60
2023-04-15T03:48:56.894Z,43.59
2023-04-15T03:51:24.610Z,43.58
2023-04-15T03:53:52.292Z,43.71
2023-04-15T03:56:19.981Z,43.64
2023-04-15T03:58:47.586Z,43.69
2023-04-15T04:01:15.416Z,43.56
2023-04-15T04:03:43.265Z,43.71
2023-04-15T04:06:12.460Z,43.89
2023-04-15T04:08:40.289Z,43.79
2023-04-15T04:11:08.062Z,43.88
2023-04-15T04:13:36.029Z,43.86
2023-04-15T04:16:07.150Z,43.94
2023-04-15T04:18:34.961Z,43.83
2023-04-15T04:21:02.843Z,43.95
2023-04-15T04:23:30.606Z,44.06
2023-04-15T04:25:58.266Z,43.99
2023-04-15T04:28:25.991Z,44.04
2023-04-15T04:30:53.762Z,44.11
2023-04-15T04:33:21.527Z,44.13
2023-04-15T04:35:49.229Z,44.28
2023-04-15T04:38:16.991Z,44.13
2023-04-15T04:40:44.788Z,44.29
2023-04-15T04:43:13.312Z,44.32
2023-04-15T04:45:41.167Z,44.17
2023-04-15T04:48:10.462Z,44.25
2023-04-15T04:50:38.226Z,44.39
2023-04-15T04:53:05.995Z,44.33
2023-04-15T04:55:36.836Z,44.53
2023-04-15T04:58:04.561Z,44.54
2023-04-15T05:00:32.522Z,44.59
2023-04-15T05:03:00.806Z,44.76
2023-04-15T05:05:28.890Z,44.55
2023-04-15T05:07:56.543Z,44.75
2023-04-15T05:10:24.281Z,44.73
2023-04-15T05:12:52.577Z,44.76
2023-04-15T05:15:20.381Z,44.81
2023-04-15T05:17:48.182Z,45.00
2023-04-15T05:20:16.002Z,45.07
2023-04-15T05:22:43.754Z,45.05
2023-04-15T05:25:12.434Z,44.94
2023-04-15T05:27:40.543Z,45.16
2023-04-15T05:30:08.967Z,45.52
2023-04-15T05:32:36.820Z,45.17
2023-04-15T05:35:05.022Z,44.99
2023-04-15T05:37:34.629Z,45.54
2023-04-15T05:40:02.609Z,45.60
2023-04-15T05:42:30.439Z,45.58
2023-04-15T05:44:58.282Z,45.38
2023-04-15T05:47:26.392Z,45.50
2023-04-15T05:49:54.307Z,45.66
2023-04-15T05:52:22.054Z,46.06
2023-04-15T05:54:49.761Z,45.74
2023-04-15T05:57:17.597Z,45.81
2023-04-15T05:59:45.338Z,46.29
2023-04-15T06:02:15.451Z,45.97
2023-04-15T06:04:43.128Z,46.54
2023-04-15T06:07:12.042Z,46.46
2023-04-15T06:09:39.724Z,46.39
2023-04-15T06:12:12.093Z,46.55
2023-04-15T06:14:40.575Z,46.59
2023-04-15T06:17:08.543Z,46.73
2023-04-15T06:19:36.794Z,46.73
2023-04-15T06:22:06.826Z,46.91
2023-04-15T06:24:36.983Z,47.00
2023-04-15T06:27:04.846Z,47.07
2023-04-15T06:29:32.558Z,47.22
2023-04-15T06:32:00.606Z,47.25
2023-04-15T06:34:28.335Z,47.27
2023-04-15T06:36:56.039Z,47.40
2023-04-15T06:39:23.722Z,47.51
2023-04-15T06:41:51.416Z,47.66
2023-04-15T06:44:22.448Z,47.77
2023-04-15T06:46:50.467Z,47.65
2023-04-15T06:49:18.206Z,47.66
2023-04-15T06:51:46.211Z,47.66
2023-04-15T06:54:16.203Z,47.66
2023-04-15T06:56:43.832Z,47.50
2023-04-15T06:59:11.553Z,47.87
2023-04-15T07:01:39.215Z,47.51
2023-04-15T07:04:07.607Z,47.86
2023-04-15T07:06:35.667Z,47.35
2023-04-15T07:09:05.537Z,47.51
2023-04-15T07:11:33.520Z,47.24
2023-04-15T07:14:01.412Z,47.25
2023-04-15T07:16:30.464Z,47.16
2023-04-15T07:18:58.277Z,46.92
2023-04-15T07:21:27.637Z,46.71
2023-04-15T07:23:55.525Z,46.65
2023-04-15T07:26:23.579Z,46.58
2023-04-15T07:28:52.146Z,46.38
2023-04-15T07:31:20.005Z,46.39
2023-04-15T07:33:47.718Z,46.24
2023-04-15T07:36:15.440Z,46.00
2023-04-15T07:38:43.151Z,45.91
2023-04-15T07:41:12.261Z,45.67
2023-04-15T07:43:42.558Z,45.83
2023-04-15T07:46:10.417Z,45.64
2023-04-15T07:48:39.265Z,45.64
2023-04-15T07:51:07.817Z,45.42
2023-04-15T07:53:35.628Z,45.46
2023-04-15T07:56:03.467Z,45.48
2023-04-15T07:58:33.561Z,45.27
2023-04-15T08:01:01.315Z,45.09
2023-04-15T08:03:29.171Z,44.98
2023-04-15T08:05:57.414Z,44.97
2023-04-15T08:08:25.803Z,45.01
2023-04-15T08:10:53.604Z,44.99
2023-04-15T08:13:21.778Z,44.73
2023-04-15T08:16:28.442Z,44.41
2023-04-15T08:18:57.108Z,44.59
2023-04-15T08:21:25.469Z,44.50
2023-04-15T08:23:54.549Z,44.26
2023-04-15T08:26:22.680Z,44.15
2023-04-15T08:28:51.274Z,44.28
2023-04-15T08:31:20.178Z,44.32
2023-04-15T08:33:48.375Z,44.24
2023-04-15T08:36:16.265Z,43.98
2023-04-15T08:38:45.604Z,43.96
2023-04-15T08:41:25.773Z,43.68
2023-04-15T08:44:06.620Z,43.54
2023-04-15T08:46:37.779Z,43.77
2023-04-15T08:49:09.484Z,43.77
2023-04-15T08:51:38.040Z,43.76
2023-04-15T08:54:06.498Z,43.81
2023-04-15T08:56:35.012Z,43.52
2023-04-15T08:59:03.958Z,43.63
2023-04-15T09:01:33.227Z,43.59
2023-04-15T09:04:04.280Z,43.24
2023-04-15T09:06:31.954Z,43.33
2023-04-15T09:08:59.946Z,43.19
2023-04-15T09:11:31.394Z,43.05
2023-04-15T09:13:59.413Z,43.00
2023-04-15T09:16:27.566Z,42.98
2023-04-15T09:18:55.662Z,42.91
2023-04-15T09:21:24.732Z,42.72
2023-04-15T09:24:01.853Z,42.50
2023-04-15T09:26:40.453Z,42.40
2023-04-15T09:29:14.780Z,42.35
2023-04-15T09:31:43.441Z,42.51
2023-04-15T09:34:11.674Z,42.53
2023-04-15T09:36:54.897Z,42.28
2023-04-15T09:39:22.851Z,42.65
2023-04-15T09:42:07.474Z,42.35
2023-04-15T09:44:37.958Z,42.31
2023-04-15T09:47:06.485Z,42.38
2023-04-15T09:49:34.274Z,42.02
2023-04-15T09:52:05.986Z,41.78
2023-04-15T09:54:39.145Z,41.42
2023-04-15T09:57:10.214Z,41.27
2023-04-15T09:59:38.594Z,41.45
2023-04-15T10:02:07.493Z,41.45
2023-04-15T10:04:39.685Z,41.08
2023-04-15T10:07:09.835Z,41.07
2023-04-15T10:09:39.551Z,41.05
2023-04-15T10:12:07.549Z,40.88
2023-04-15T10:14:38.457Z,40.74
2023-04-15T10:17:07.787Z,40.67
2023-04-15T10:19:38.451Z,40.85
2023-04-15T10:22:08.303Z,40.60
2023-04-15T10:24:37.311Z,40.64
2023-04-15T10:27:05.772Z,40.84
2023-04-15T10:29:34.249Z,40.95
2023-04-15T10:32:03.745Z,40.44
2023-04-15T10:34:32.846Z,40.10
2023-04-15T10:37:04.523Z,40.03
2023-04-15T10:39:35.124Z,39.81
2023-04-15T10:42:10.844Z,39.67
2023-04-15T10:44:49.673Z,39.53
2023-04-15T10:47:20.198Z,39.09
2023-04-15T10:50:00.444Z,38.07
2023-04-15T10:52:29.644Z,38.46
2023-04-15T10:55:18.369Z,37.80
2023-04-15T10:57:46.211Z,37.80
2023-04-15T11:00:16.418Z,37.45
2023-04-15T11:03:19.175Z,37.41
2023-04-15T11:05:52.469Z,36.96
2023-04-15T11:08:21.356Z,36.96
2023-04-15T11:10:48.970Z,36.52
2023-04-15T11:13:25.119Z,36.63
2023-04-15T11:15:58.318Z,36.41
2023-04-15T11:18:31.326Z,36.26
2023-04-15T11:21:03.490Z,36.02
2023-04-15T11:23:47.007Z,36.08
2023-04-15T11:26:15.768Z,35.81
2023-04-15T11:28:46.674Z,35.86
2023-04-15T11:31:18.206Z,35.69
2023-04-15T11:33:59.037Z,35.94
2023-04-15T11:36:29.269Z,35.39
2023-04-15T11:38:59.507Z,34.95
2023-04-15T11:41:27.501Z,34.81
2023-04-15T11:43:55.318Z,34.73
2023-04-15T11:46:33.419Z,34.43
2023-04-15T11:49:01.644Z,34.62
2023-04-15T11:51:34.507Z,33.94
2023-04-15T11:54:03.194Z,34.27
2023-04-15T11:56:32.039Z,33.99
2023-04-15T11:59:00.316Z,33.02
2023-04-15T12:01:36.351Z,32.77
2023-04-15T12:04:22.579Z,32.72
2023-04-15T12:06:53.447Z,32.75
2023-04-15T12:09:21.712Z,32.61
2023-04-15T12:11:51.691Z,32.63
2023-04-15T12:14:41.109Z,31.88
2023-04-15T12:17:11.428Z,31.67
2023-04-15T12:19:42.271Z,31.21
2023-04-15T12:22:17.585Z,30.82
2023-04-15T12:24:49.449Z,30.93
2023-04-15T12:27:17.697Z,29.74
2023-04-15T12:29:45.576Z,29.34
2023-04-15T12:32:20.849Z,28.70
2023-04-15T12:34:55.164Z,28.60
2023-04-15T12:37:24.099Z,28.85
2023-04-15T12:39:52.288Z,29.06
2023-04-15T12:42:20.944Z,29.42
2023-04-15T12:44:48.587Z,29.20
2023-04-15T12:47:16.358Z,29.36
2023-04-15T12:49:47.084Z,29.66
2023-04-15T12:52:17.031Z,29.12
2023-04-15T12:54:44.786Z,29.37
2023-04-15T12:57:12.453Z,29.30
2023-04-15T12:59:40.514Z,29.48
2023-04-15T13:02:08.929Z,29.18
2023-04-15T13:04:38.687Z,29.43
2023-04-15T13:07:06.575Z,29.43
2023-04-15T13:09:34.358Z,29.48
2023-04-15T13:12:05.342Z,29.87
2023-04-15T13:14:33.074Z,29.78
2023-04-15T13:17:00.816Z,29.94
2023-04-15T13:19:28.626Z,29.90
2023-04-15T13:21:56.321Z,29.83
2023-04-15T13:24:24.087Z,29.99
2023-04-15T13:26:52.087Z,30.03
2023-04-15T13:29:20.147Z,30.23
2023-04-15T13:31:47.957Z,29.99
2023-04-15T13:34:15.707Z,30.00
2023-04-15T13:36:43.379Z,30.14
2023-04-15T13:39:11.295Z,30.08
2023-04-15T13:41:39.067Z,30.31
2023-04-15T13:44:09.094Z,30.20
2023-04-15T13:46:37.789Z,30.41
2023-04-15T13:49:06.079Z,30.16
2023-04-15T13:51:36.030Z,30.43
2023-04-15T13:54:04.235Z,30.11
2023-04-15T13:56:37.888Z,30.43
2023-04-15T13:59:06.645Z,30.13
2023-04-15T14:01:35.364Z,30.36
2023-04-15T14:04:03.306Z,30.72
2023-04-15T14:06:33.345Z,30.43
2023-04-15T14:09:01.192Z,30.47
2023-04-15T14:11:29.960Z,30.32
2023-04-15T14:13:57.674Z,30.19
2023-04-15T14:16:27.520Z,30.50
2023-04-15T14:18:58.008Z,30.08
2023-04-15T14:21:27.841Z,30.03
2023-04-15T14:23:55.776Z,29.93
2023-04-15T14:26:23.452Z,30.02
2023-04-15T14:28:52.686Z,30.10
2023-04-15T14:31:20.721Z,30.21
2023-04-15T14:33:48.502Z,30.13
2023-04-15T14:36:16.279Z,29.87
2023-04-15T14:38:45.776Z,29.99
2023-04-15T14:41:14.729Z,30.01
2023-04-15T14:43:42.407Z,29.76
2023-04-15T14:46:11.545Z,29.24
2023-04-15T14:48:39.345Z,29.48
2023-04-15T14:51:07.329Z,29.48
2023-04-15T14:53:35.062Z,29.52
2023-04-15T14:56:02.888Z,29.47
2023-04-15T14:58:30.877Z,29.28
2023-04-15T15:00:59.067Z,29.52
2023-04-15T15:03:26.982Z,29.42
2023-04-15T15:05:55.089Z,29.74
2023-04-15T15:08:23.134Z,29.85
2023-04-15T15:10:53.042Z,29.72
2023-04-15T15:13:25.624Z,29.92
2023-04-15T15:15:55.512Z,30.10
2023-04-15T15:18:25.485Z,30.13
2023-04-15T15:20:53.265Z,30.17
2023-04-15T15:23:20.973Z,30.14
2023-04-15T15:25:48.841Z,30.37
2023-04-15T15:28:17.444Z,30.60
2023-04-15T15:30:45.552Z,30.92
2023-04-15T15:33:13.264Z,31.22
2023-04-15T15:35:41.129Z,31.31
2023-04-15T15:38:11.171Z,31.94
2023-04-15T15:40:41.167Z,32.13
2023-04-15T15:43:09.235Z,32.71
2023-04-15T15:45:36.971Z,33.06
2023-04-15T15:48:05.803Z,33.11
2023-04-15T15:50:34.781Z,33.58
2023-04-15T15:53:02.577Z,33.95
2023-04-15T15:55:30.529Z,34.08
2023-04-15T15:57:58.287Z,34.36
2023-04-15T16:00:26.341Z,34.64
2023-04-15T16:03:06.162Z,34.86
2023-04-15T16:05:40.511Z,35.18
2023-04-15T16:08:08.324Z,35.33
2023-04-15T16:10:36.088Z,35.79
2023-04-15T16:13:03.865Z,36.18
2023-04-15T16:15:32.518Z,36.75
2023-04-15T16:18:00.659Z,37.03
2023-04-15T16:20:28.910Z,37.51
2023-04-15T16:22:59.398Z,38.26
2023-04-15T16:25:27.210Z,38.85
2023-04-15T16:28:05.536Z,39.42
2023-04-15T16:30:44.173Z,39.89
2023-04-15T16:33:11.879Z,40.34
2023-04-15T16:35:39.583Z,41.08
2023-04-15T16:38:07.335Z,41.54
2023-04-15T16:40:36.660Z,42.04
2023-04-15T16:43:08.203Z,43.13
2023-04-15T16:45:35.900Z,42.44
2023-04-15T16:48:03.828Z,42.64
2023-04-15T16:50:31.689Z,43.20
2023-04-15T16:52:59.459Z,43.59
2023-04-15T16:55:27.492Z,43.94
2023-04-15T16:58:02.772Z,44.24
2023-04-15T17:00:32.823Z,44.57
2023-04-15T17:03:01.263Z,44.85
2023-04-15T17:05:31.824Z,45.08
2023-04-15T17:07:59.829Z,45.77
2023-04-15T17:10:28.202Z,46.25
2023-04-15T17:13:02.141Z,46.66
2023-04-15T17:15:31.436Z,47.09
2023-04-15T17:17:59.285Z,47.13
2023-04-15T17:20:27.282Z,47.48
2023-04-15T17:22:54.980Z,47.70
2023-04-15T17:25:23.544Z,47.91
2023-04-15T17:27:51.204Z,47.90
2023-04-15T17:30:19.935Z,48.04
2023-04-15T17:32:47.923Z,48.01
2023-04-15T17:35:16.308Z,48.35
2023-04-15T17:37:44.028Z,48.52
2023-04-15T17:40:12.400Z,48.81
2023-04-15T17:42:40.608Z,48.91
2023-04-15T17:45:09.206Z,49.22
2023-04-15T17:47:36.949Z,49.64
2023-04-15T17:50:05.269Z,49.48
2023-04-15T17:52:35.437Z,49.11
2023-04-15T17:55:03.190Z,49.36
2023-04-15T17:57:31.161Z,49.17
2023-04-15T17:59:58.982Z,49.80
2023-04-15T18:02:28.030Z,49.73
2023-04-15T18:04:58.044Z,49.53
2023-04-15T18:07:25.823Z,49.36
2023-04-15T18:09:55.987Z,49.69
2023-04-15T18:12:23.875Z,49.63
2023-04-15T18:14:51.617Z,49.78
2023-04-15T18:17:20.230Z,49.77
2023-04-15T18:19:48.248Z,49.73
2023-04-15T18:22:16.114Z,50.05
2023-04-15T18:24:47.246Z,49.94
2023-04-15T18:27:16.100Z,49.98
2023-04-15T18:29:49.100Z,49.97
2023-04-15T18:32:20.091Z,49.85
2023-04-15T18:34:48.574Z,50.08
2023-04-15T18:37:16.841Z,50.25
2023-04-15T18:39:46.008Z,50.15
2023-04-15T18:42:17.064Z,50.06
2023-04-15T18:44:44.927Z,50.77
2023-04-15T18:47:13.784Z,50.41
2023-04-15T18:49:44.595Z,50.55
2023-04-15T18:52:13.150Z,50.86
2023-04-15T18:54:40.933Z,50.73
2023-04-15T18:57:09.063Z,50.83
2023-04-15T18:59:37.059Z,50.84
2023-04-15T19:02:11.863Z,51.06
2023-04-15T19:04:40.180Z,51.16
2023-04-15T19:07:18.728Z,51.22
2023-04-15T19:09:48.203Z,51.29
2023-04-15T19:12:19.013Z,51.36
2023-04-15T19:14:48.272Z,51.54
2023-04-15T19:17:17.565Z,51.51
2023-04-15T19:19:45.953Z,51.72
2023-04-15T19:22:15.629Z,51.86
2023-04-15T19:24:44.062Z,51.91
2023-04-15T19:27:11.859Z,52.04
2023-04-15T19:29:39.643Z,52.08
2023-04-15T19:32:08.017Z,52.10
2023-04-15T19:34:35.790Z,52.17
2023-04-15T19:37:03.587Z,52.35
2023-04-15T19:39:31.376Z,52.46
2023-04-15T19:41:59.507Z,52.58
2023-04-15T19:44:27.208Z,52.65
2023-04-15T19:46:55.363Z,52.66
2023-04-15T19:49:23.232Z,52.63
2023-04-15T19:51:51.294Z,52.79
2023-04-15T19:54:19.032Z,52.69
2023-04-15T19:56:46.685Z,52.78
2023-04-15T19:59:14.995Z,52.61
2023-04-15T20:01:42.959Z,52.69
2023-04-15T20:04:11.131Z,53.10
2023-04-15T20:06:39.372Z,53.00
2023-04-15T20:09:09.001Z,53.06
2023-04-15T20:12:45.888Z,53.15
2023-04-15T20:14:26.668Z,52.95
2023-04-15T20:16:54.429Z,53.16
2023-04-15T20:19:22.891Z,53.20
2023-04-15T20:21:52.540Z,53.23
2023-04-15T20:24:21.772Z,53.35
2023-04-15T20:26:49.422Z,53.36
2023-04-15T20:29:17.262Z,53.40
2023-04-15T20:31:45.132Z,53.35
2023-04-15T20:34:12.907Z,53.40
2023-04-15T20:36:42.404Z,53.42
2023-04-15T20:39:10.206Z,53.42
2023-04-15T20:41:37.921Z,53.33
2023-04-15T20:44:05.761Z,53.41
2023-04-15T20:46:33.427Z,53.44
2023-04-15T20:49:01.191Z,53.42
2023-04-15T20:51:49.448Z,53.42
2023-04-15T20:54:19.526Z,53.48
2023-04-15T20:56:47.198Z,53.32
2023-04-15T20:59:15.027Z,53.53
2023-04-15T21:01:42.860Z,53.53
2023-04-15T21:04:10.708Z,53.55
2023-04-15T21:06:38.396Z,53.50
2023-04-15T21:09:06.351Z,53.47
2023-04-15T21:11:53.246Z,53.48
2023-04-15T21:14:22.299Z,53.56
2023-04-15T21:16:51.853Z,53.52
2023-04-15T21:19:19.646Z,53.58
2023-04-15T21:21:47.331Z,53.50
2023-04-15T21:24:15.009Z,53.46
2023-04-15T21:26:42.735Z,53.50
2023-04-15T21:29:11.956Z,53.48
2023-04-15T21:31:40.804Z,53.54
2023-04-15T21:34:09.227Z,53.72
2023-04-15T21:36:38.301Z,53.61
2023-04-15T21:39:06.391Z,53.74
2023-04-15T21:41:34.220Z,53.68
2023-04-15T21:44:02.196Z,53.76
2023-04-15T21:46:32.841Z,53.82
2023-04-15T21:49:03.490Z,53.79
2023-04-15T21:51:31.599Z,53.77
2023-04-15T21:53:59.688Z,53.67
2023-04-15T21:56:28.523Z,54.00
2023-04-15T21:58:57.955Z,53.92
2023-04-15T22:01:26.783Z,53.88
2023-04-15T22:03:54.896Z,53.89
2023-04-15T22:06:23.006Z,53.99
2023-04-15T22:08:56.869Z,54.11
2023-04-15T22:11:30.399Z,54.19
2023-04-15T22:13:59.004Z,53.96
2023-04-15T22:16:27.715Z,54.04
2023-04-15T22:18:55.832Z,54.17
2023-04-15T22:21:23.869Z,54.28
2023-04-15T22:23:51.951Z,54.18
2023-04-15T22:26:20.539Z,54.23
2023-04-15T22:28:48.263Z,54.33
2023-04-15T22:31:15.999Z,54.32
2023-04-15T22:33:43.640Z,54.23
2023-04-15T22:36:11.538Z,54.35
2023-04-15T22:38:39.251Z,54.35
2023-04-15T22:41:07.070Z,54.45
2023-04-15T22:43:34.805Z,54.60
2023-04-15T22:46:02.794Z,54.49
2023-04-15T22:48:30.693Z,54.56
2023-04-15T22:50:58.422Z,54.53
2023-04-15T22:53:26.411Z,54.53
2023-04-15T22:55:54.212Z,54.51
2023-04-15T22:58:22.065Z,54.64
2023-04-15T23:00:50.195Z,54.74
2023-04-15T23:03:18.206Z,54.68
2023-04-15T23:05:46.714Z,54.79
2023-04-15T23:08:14.529Z,54.73
2023-04-15T23:10:44.622Z,54.82
2023-04-15T23:13:12.364Z,54.70
2023-04-15T23:15:40.588Z,54.78
2023-04-15T23:18:08.357Z,54.76
2023-04-15T23:20:36.758Z,54.58
2023-04-15T23:23:04.518Z,54.94
2023-04-15T23:25:32.295Z,54.70
2023-04-15T23:28:00.233Z,54.68
2023-04-15T23:30:27.990Z,54.67
2023-04-15T23:32:55.865Z,54.65
2023-04-15T23:35:24.490Z,54.63
2023-04-15T23:37:52.223Z,54.55
2023-04-15T23:40:19.983Z,54.58
2023-04-15T23:42:47.756Z,54.38
2023-04-15T23:45:15.519Z,54.43
2023-04-15T23:47:43.225Z,54.32
2023-04-15T23:50:11.283Z,54.36
2023-04-15T23:52:39.245Z,54.28
2023-04-15T23:55:07.858Z,54.22
2023-04-15T23:57:35.528Z,54.19
